JST520 YMML-YSSY
Flight info
| Callsign | JST520 |
|---|---|
| Flight time | 1h 7m |
| Altitude | 37000 |
| Route | ML H129 DOSEL Y59 TESAT |
| Aircraft | A321/M-SDE3FGHIRWY/LB1 |
Departure
| Time | 2026-05-04 08:50 |
|---|---|
| Airport | Melbourne Airport (YMML) |
Arrival
| Time | 2026-05-04 09:57 |
|---|---|
| Airport | Sydney Kingsford Smith International Airport (YSSY) |
| Time | Latitude | Longitude | Altitude | Speed | Heading |
|---|---|---|---|---|---|
| 2026-05-04 08:08 | -37.67610 | 144.84662 | 376 ft | 0 kts | 81° |
| 2026-05-04 08:28 | -37.67612 | 144.84648 | 376 ft | 3 kts | 82° |
| 2026-05-04 08:29 | -37.67615 | 144.84623 | 376 ft | 3 kts | 80° |
| 2026-05-04 08:29 | -37.67619 | 144.84598 | 375 ft | 3 kts | 72° |
| 2026-05-04 08:29 | -37.67626 | 144.84576 | 374 ft | 3 kts | 44° |
| 2026-05-04 08:31 | -37.67700 | 144.84579 | 372 ft | 0 kts | 352° |
| 2026-05-04 08:33 | -37.67519 | 144.84543 | 378 ft | 17 kts | 345° |
| 2026-05-04 08:33 | -37.67470 | 144.84443 | 378 ft | 9 kts | 263° |
| 2026-05-04 08:35 | -37.67720 | 144.84158 | 367 ft | 23 kts | 171° |
| 2026-05-04 08:35 | -37.67742 | 144.84160 | 364 ft | 0 kts | 174° |
| 2026-05-04 08:35 | -37.67744 | 144.84161 | 364 ft | 0 kts | 174° |
| 2026-05-04 08:37 | -37.67745 | 144.84161 | 364 ft | 1 kts | 174° |
| 2026-05-04 08:37 | -37.67787 | 144.84167 | 364 ft | 0 kts | 172° |
| 2026-05-04 08:37 | -37.67795 | 144.84168 | 363 ft | 0 kts | 172° |
| 2026-05-04 08:46 | -37.67867 | 144.84125 | 364 ft | 0 kts | 245° |
| 2026-05-04 08:49 | -37.67873 | 144.84065 | 357 ft | 16 kts | 277° |
| 2026-05-04 08:50 | -37.64410 | 144.83248 | 1517 ft | 162 kts | 348° |
| 2026-05-04 08:50 | -37.63291 | 144.82957 | 2187 ft | 166 kts | 346° |
| 2026-05-04 08:51 | -37.62156 | 144.82597 | 2882 ft | 168 kts | 343° |
| 2026-05-04 08:51 | -37.61028 | 144.82177 | 3595 ft | 170 kts | 342° |
| 2026-05-04 08:51 | -37.59839 | 144.81893 | 4083 ft | 184 kts | 2° |
| 2026-05-04 08:51 | -37.58546 | 144.82344 | 4329 ft | 206 kts | 25° |
| 2026-05-04 08:52 | -37.57241 | 144.83314 | 4568 ft | 231 kts | 29° |
| 2026-05-04 08:52 | -37.55742 | 144.84332 | 4893 ft | 255 kts | 26° |
| 2026-05-04 08:52 | -37.54099 | 144.85367 | 5069 ft | 269 kts | 26° |
| 2026-05-04 08:52 | -37.52386 | 144.86411 | 5508 ft | 274 kts | 25° |
| 2026-05-04 08:53 | -37.50663 | 144.87449 | 6373 ft | 275 kts | 25° |
| 2026-05-04 08:54 | -37.39927 | 144.98316 | 10654 ft | 332 kts | 54° |
| 2026-05-04 08:55 | -37.38566 | 145.00727 | 11164 ft | 341 kts | 54° |
| 2026-05-04 08:55 | -37.37183 | 145.03171 | 11821 ft | 346 kts | 54° |
| 2026-05-04 08:55 | -37.35778 | 145.05646 | 12493 ft | 349 kts | 54° |
| 2026-05-04 08:55 | -37.34357 | 145.08147 | 13149 ft | 353 kts | 54° |
| 2026-05-04 08:57 | -37.24564 | 145.25397 | 17276 ft | 374 kts | 54° |
| 2026-05-04 09:01 | -37.02043 | 145.64720 | 24388 ft | 417 kts | 54° |
| 2026-05-04 09:01 | -37.00335 | 145.67682 | 24796 ft | 420 kts | 54° |
| 2026-05-04 09:01 | -36.98625 | 145.70647 | 25186 ft | 423 kts | 54° |
| 2026-05-04 09:01 | -36.96897 | 145.73639 | 25581 ft | 425 kts | 54° |
| 2026-05-04 09:02 | -36.95158 | 145.76643 | 25955 ft | 428 kts | 54° |
| 2026-05-04 09:02 | -36.93408 | 145.79663 | 26332 ft | 430 kts | 54° |
| 2026-05-04 09:02 | -36.91645 | 145.82701 | 26683 ft | 433 kts | 54° |
| 2026-05-04 09:02 | -36.89870 | 145.85758 | 27028 ft | 436 kts | 54° |
| 2026-05-04 09:03 | -36.88088 | 145.88832 | 27357 ft | 438 kts | 54° |
| 2026-05-04 09:03 | -36.86293 | 145.91931 | 27693 ft | 441 kts | 54° |
| 2026-05-04 09:03 | -36.84488 | 145.95040 | 28053 ft | 443 kts | 54° |
| 2026-05-04 09:03 | -36.82677 | 145.98156 | 28384 ft | 445 kts | 54° |
| 2026-05-04 09:04 | -36.80853 | 146.01291 | 28717 ft | 447 kts | 54° |
| 2026-05-04 09:04 | -36.79026 | 146.04430 | 28960 ft | 447 kts | 54° |
| 2026-05-04 09:04 | -36.77219 | 146.07529 | 29238 ft | 449 kts | 53° |
| 2026-05-04 09:04 | -36.75373 | 146.10681 | 29524 ft | 451 kts | 53° |
| 2026-05-04 09:05 | -36.73513 | 146.13853 | 29827 ft | 453 kts | 53° |
| 2026-05-04 09:05 | -36.71652 | 146.17029 | 30096 ft | 456 kts | 53° |
| 2026-05-04 09:05 | -36.69778 | 146.20229 | 30390 ft | 458 kts | 53° |
| 2026-05-04 09:05 | -36.67900 | 146.23436 | 30681 ft | 460 kts | 53° |
| 2026-05-04 09:06 | -36.66010 | 146.26661 | 30979 ft | 461 kts | 53° |
| 2026-05-04 09:07 | -36.52762 | 146.49142 | 33511 ft | 457 kts | 53° |
| 2026-05-04 09:08 | -36.50879 | 146.52324 | 33851 ft | 456 kts | 53° |
| 2026-05-04 09:08 | -36.48995 | 146.55505 | 34177 ft | 456 kts | 53° |
| 2026-05-04 09:08 | -36.47149 | 146.58623 | 34501 ft | 455 kts | 53° |
| 2026-05-04 09:08 | -36.45246 | 146.61835 | 34820 ft | 454 kts | 53° |
| 2026-05-04 09:09 | -36.43373 | 146.64998 | 35134 ft | 454 kts | 53° |
| 2026-05-04 09:09 | -36.41505 | 146.68148 | 35433 ft | 453 kts | 53° |
| 2026-05-04 09:09 | -36.39629 | 146.71307 | 35689 ft | 454 kts | 53° |
| 2026-05-04 09:09 | -36.37749 | 146.74465 | 35944 ft | 455 kts | 53° |
| 2026-05-04 09:10 | -36.35872 | 146.77613 | 36213 ft | 454 kts | 53° |
| 2026-05-04 09:10 | -36.34012 | 146.80728 | 36495 ft | 453 kts | 53° |
| 2026-05-04 09:10 | -36.32110 | 146.83908 | 36778 ft | 452 kts | 53° |
| 2026-05-04 09:10 | -36.30259 | 146.86996 | 36964 ft | 453 kts | 53° |
| 2026-05-04 09:11 | -36.28381 | 146.90132 | 37011 ft | 452 kts | 53° |
| 2026-05-04 09:11 | -36.24642 | 146.96387 | 37009 ft | 451 kts | 53° |
| 2026-05-04 09:12 | -36.20903 | 147.02627 | 37009 ft | 451 kts | 53° |
| 2026-05-04 09:14 | -36.05887 | 147.27541 | 37018 ft | 453 kts | 53° |
| 2026-05-04 09:14 | -36.02109 | 147.33783 | 37027 ft | 453 kts | 53° |
| 2026-05-04 09:15 | -35.98330 | 147.40017 | 37029 ft | 453 kts | 53° |
| 2026-05-04 09:15 | -35.94544 | 147.46239 | 37031 ft | 453 kts | 53° |
| 2026-05-04 09:17 | -35.77497 | 147.74157 | 37027 ft | 453 kts | 53° |
| 2026-05-04 09:18 | -35.73692 | 147.80357 | 37025 ft | 453 kts | 53° |
| 2026-05-04 09:18 | -35.69884 | 147.86547 | 37023 ft | 453 kts | 52° |
| 2026-05-04 09:19 | -35.66073 | 147.92737 | 37022 ft | 454 kts | 53° |
| 2026-05-04 09:19 | -35.62269 | 147.98920 | 37022 ft | 454 kts | 53° |
| 2026-05-04 09:20 | -35.58448 | 148.05112 | 37017 ft | 454 kts | 52° |
| 2026-05-04 09:20 | -35.54618 | 148.11292 | 37017 ft | 455 kts | 52° |
| 2026-05-04 09:21 | -35.50777 | 148.17478 | 37022 ft | 455 kts | 52° |
| 2026-05-04 09:21 | -35.46934 | 148.23651 | 37027 ft | 455 kts | 52° |
| 2026-05-04 09:22 | -35.43090 | 148.29820 | 37036 ft | 455 kts | 52° |
| 2026-05-04 09:22 | -35.39256 | 148.35975 | 37020 ft | 455 kts | 52° |
| 2026-05-04 09:23 | -35.35405 | 148.42152 | 37028 ft | 455 kts | 52° |
| 2026-05-04 09:23 | -35.31556 | 148.48305 | 37029 ft | 456 kts | 52° |
| 2026-05-04 09:25 | -35.16084 | 148.72903 | 37036 ft | 456 kts | 52° |
| 2026-05-04 09:26 | -35.12227 | 148.79019 | 37014 ft | 454 kts | 52° |
| 2026-05-04 09:26 | -35.08361 | 148.85126 | 37021 ft | 454 kts | 52° |
| 2026-05-04 09:27 | -35.04495 | 148.91224 | 37027 ft | 454 kts | 52° |
| 2026-05-04 09:27 | -35.00629 | 148.97310 | 37026 ft | 454 kts | 52° |
| 2026-05-04 09:28 | -34.96761 | 149.03395 | 37025 ft | 454 kts | 52° |
| 2026-05-04 09:28 | -34.92897 | 149.09468 | 37022 ft | 454 kts | 52° |
| 2026-05-04 09:29 | -34.90955 | 149.12512 | 36586 ft | 457 kts | 52° |
| 2026-05-04 09:29 | -34.88980 | 149.15606 | 35674 ft | 464 kts | 52° |
| 2026-05-04 09:29 | -34.87012 | 149.18687 | 34709 ft | 459 kts | 52° |
| 2026-05-04 09:29 | -34.85087 | 149.21700 | 34134 ft | 445 kts | 52° |
| 2026-05-04 09:30 | -34.83194 | 149.24659 | 33824 ft | 438 kts | 52° |
| 2026-05-04 09:30 | -34.81349 | 149.27539 | 33340 ft | 436 kts | 52° |
| 2026-05-04 09:30 | -34.79505 | 149.30418 | 32867 ft | 433 kts | 52° |
| 2026-05-04 09:30 | -34.77640 | 149.33328 | 32368 ft | 431 kts | 52° |
| 2026-05-04 09:31 | -34.75802 | 149.36193 | 31885 ft | 428 kts | 52° |
| 2026-05-04 09:31 | -34.74027 | 149.39094 | 31401 ft | 425 kts | 58° |
| 2026-05-04 09:31 | -34.72596 | 149.42211 | 30937 ft | 422 kts | 62° |
| 2026-05-04 09:31 | -34.71227 | 149.45377 | 30463 ft | 420 kts | 62° |
| 2026-05-04 09:32 | -34.69873 | 149.48491 | 30002 ft | 417 kts | 62° |
| 2026-05-04 09:32 | -34.68516 | 149.51597 | 29545 ft | 414 kts | 62° |
| 2026-05-04 09:34 | -34.59297 | 149.72664 | 26593 ft | 394 kts | 62° |
| 2026-05-04 09:34 | -34.58015 | 149.75594 | 26196 ft | 392 kts | 62° |
| 2026-05-04 09:34 | -34.56736 | 149.78506 | 25788 ft | 389 kts | 62° |
| 2026-05-04 09:34 | -34.55461 | 149.81396 | 25369 ft | 387 kts | 62° |
| 2026-05-04 09:35 | -34.54197 | 149.84257 | 25045 ft | 382 kts | 62° |
| 2026-05-04 09:35 | -34.52946 | 149.87086 | 24997 ft | 380 kts | 62° |
| 2026-05-04 09:35 | -34.51694 | 149.89914 | 24832 ft | 383 kts | 62° |
| 2026-05-04 09:35 | -34.50422 | 149.92796 | 23979 ft | 394 kts | 62° |
| 2026-05-04 09:37 | -34.42189 | 150.11398 | 20760 ft | 330 kts | 62° |
| 2026-05-04 09:37 | -34.41104 | 150.13843 | 20358 ft | 329 kts | 62° |
| 2026-05-04 09:38 | -34.40027 | 150.16269 | 19977 ft | 327 kts | 62° |
| 2026-05-04 09:38 | -34.38949 | 150.18691 | 19586 ft | 326 kts | 61° |
| 2026-05-04 09:38 | -34.37872 | 150.21106 | 19196 ft | 324 kts | 61° |
| 2026-05-04 09:38 | -34.37163 | 150.22694 | 18938 ft | 324 kts | 61° |
| 2026-05-04 09:39 | -34.35747 | 150.25858 | 18423 ft | 322 kts | 61° |
| 2026-05-04 09:39 | -34.34684 | 150.28234 | 18036 ft | 321 kts | 61° |
| 2026-05-04 09:39 | -34.33623 | 150.30609 | 17650 ft | 319 kts | 61° |
| 2026-05-04 09:39 | -34.32569 | 150.32971 | 17263 ft | 318 kts | 61° |
| 2026-05-04 09:40 | -34.31522 | 150.35315 | 16881 ft | 317 kts | 61° |
| 2026-05-04 09:40 | -34.30813 | 150.36901 | 16621 ft | 316 kts | 61° |
| 2026-05-04 09:40 | -34.29767 | 150.39236 | 16232 ft | 315 kts | 61° |
| 2026-05-04 09:40 | -34.28728 | 150.41560 | 15853 ft | 314 kts | 61° |
| 2026-05-04 09:41 | -34.27689 | 150.43879 | 15472 ft | 313 kts | 61° |
| 2026-05-04 09:42 | -34.20570 | 150.59790 | 12856 ft | 303 kts | 61° |
| 2026-05-04 09:43 | -34.19569 | 150.62018 | 12488 ft | 302 kts | 61° |
| 2026-05-04 09:43 | -34.18565 | 150.64245 | 12118 ft | 300 kts | 61° |
| 2026-05-04 09:43 | -34.17570 | 150.66452 | 11751 ft | 299 kts | 61° |
| 2026-05-04 09:43 | -34.16578 | 150.68653 | 11383 ft | 297 kts | 61° |
| 2026-05-04 09:44 | -34.15591 | 150.70845 | 11018 ft | 296 kts | 61° |
| 2026-05-04 09:44 | -34.14615 | 150.73017 | 10645 ft | 295 kts | 61° |
| 2026-05-04 09:44 | -34.13637 | 150.75194 | 10293 ft | 293 kts | 61° |
| 2026-05-04 09:46 | -34.06947 | 150.90050 | 8036 ft | 283 kts | 61° |
| 2026-05-04 09:46 | -34.06311 | 150.91464 | 7850 ft | 282 kts | 61° |
| 2026-05-04 09:46 | -34.05343 | 150.93612 | 7571 ft | 281 kts | 61° |
| 2026-05-04 09:47 | -34.04407 | 150.95679 | 7300 ft | 280 kts | 61° |
| 2026-05-04 09:47 | -34.03618 | 150.97808 | 7029 ft | 278 kts | 76° |
| 2026-05-04 09:49 | -34.11566 | 151.08669 | 5467 ft | 273 kts | 168° |
| 2026-05-04 09:49 | -34.13364 | 151.09125 | 5269 ft | 255 kts | 168° |
| 2026-05-04 09:49 | -34.15074 | 151.09566 | 4853 ft | 246 kts | 168° |
| 2026-05-04 09:51 | -34.19692 | 151.16103 | 2975 ft | 190 kts | 83° |
| 2026-05-04 09:51 | -34.19538 | 151.17656 | 3026 ft | 183 kts | 83° |
| 2026-05-04 09:51 | -34.19390 | 151.19145 | 3000 ft | 181 kts | 83° |
| 2026-05-04 09:51 | -34.19224 | 151.20644 | 2989 ft | 180 kts | 78° |
| 2026-05-04 09:52 | -34.18554 | 151.21885 | 2987 ft | 179 kts | 36° |
| 2026-05-04 09:52 | -34.17466 | 151.22606 | 2989 ft | 178 kts | 24° |
| 2026-05-04 09:52 | -34.16268 | 151.23055 | 2987 ft | 178 kts | 5° |
| 2026-05-04 09:52 | -34.15050 | 151.22917 | 2989 ft | 177 kts | 347° |
| 2026-05-04 09:53 | -34.13848 | 151.22601 | 2988 ft | 177 kts | 347° |
| 2026-05-04 09:53 | -34.12643 | 151.22285 | 2987 ft | 177 kts | 347° |
| 2026-05-04 09:53 | -34.11438 | 151.21971 | 2927 ft | 177 kts | 347° |
| 2026-05-04 09:53 | -34.10233 | 151.21657 | 2749 ft | 177 kts | 347° |
| 2026-05-04 09:54 | -34.09031 | 151.21343 | 2519 ft | 176 kts | 347° |
| 2026-05-04 09:54 | -34.07865 | 151.21040 | 2311 ft | 171 kts | 347° |
| 2026-05-04 09:54 | -34.06698 | 151.20736 | 2079 ft | 164 kts | 347° |
| 2026-05-04 09:54 | -34.05651 | 151.20464 | 1869 ft | 151 kts | 347° |
| 2026-05-04 09:55 | -34.04639 | 151.20200 | 1684 ft | 147 kts | 347° |
| 2026-05-04 09:55 | -34.03645 | 151.19942 | 1472 ft | 145 kts | 347° |
| 2026-05-04 09:55 | -34.02661 | 151.19686 | 1294 ft | 144 kts | 347° |
| 2026-05-04 09:55 | -34.01681 | 151.19431 | 1093 ft | 144 kts | 349° |
| 2026-05-04 09:56 | -34.00829 | 151.19209 | 939 ft | 137 kts | 348° |
| 2026-05-04 09:56 | -33.99894 | 151.18950 | 796 ft | 135 kts | 346° |
| 2026-05-04 09:56 | -33.98980 | 151.18668 | 626 ft | 136 kts | 348° |
| 2026-05-04 09:56 | -33.98075 | 151.18453 | 419 ft | 126 kts | 351° |
| 2026-05-04 09:57 | -33.97170 | 151.18252 | 226 ft | 143 kts | 349° |
| 2026-05-04 09:57 | -33.96254 | 151.18054 | 45 ft | 123 kts | 334° |
| 2026-05-04 09:57 | -33.95558 | 151.17837 | 25 ft | 79 kts | 347° |
| 2026-05-04 09:57 | -33.95126 | 151.17757 | 21 ft | 36 kts | 0° |
| 2026-05-04 09:58 | -33.94802 | 151.17656 | 22 ft | 63 kts | 350° |
| 2026-05-04 09:58 | -33.94559 | 151.17668 | 23 ft | 0 kts | 14° |
| 2026-05-04 09:58 | -33.94548 | 151.17672 | 22 ft | 4 kts | 15° |
| 2026-05-04 10:00 | -33.93666 | 151.17658 | 21 ft | 17 kts | 90° |
| 2026-05-04 10:00 | -33.93661 | 151.17865 | 23 ft | 0 kts | 89° |